createdAt,value
2019-01-30T00:00:34.612Z,0.00
2019-01-30T00:01:34.599Z,0.00
2019-01-30T00:02:34.587Z,0.00
2019-01-30T00:03:34.574Z,0.00
2019-01-30T00:04:34.588Z,0.00
2019-01-30T00:05:34.547Z,0.00
2019-01-30T00:06:34.533Z,0.00
2019-01-30T00:07:34.521Z,0.00
2019-01-30T00:08:34.506Z,0.00
2019-01-30T00:09:34.505Z,0.00
2019-01-30T00:10:34.481Z,0.00
2019-01-30T00:11:34.473Z,0.00
2019-01-30T00:12:34.455Z,0.00
2019-01-30T00:13:34.444Z,0.00
2019-01-30T00:14:34.428Z,0.00
2019-01-30T00:15:34.415Z,0.00
2019-01-30T00:16:34.402Z,0.00
2019-01-30T00:17:34.387Z,0.00
2019-01-30T00:18:34.375Z,0.00
2019-01-30T00:19:34.362Z,0.00
2019-01-30T00:20:34.346Z,0.00
2019-01-30T00:21:34.336Z,0.00
2019-01-30T00:22:34.333Z,0.00
2019-01-30T00:23:34.314Z,0.00
2019-01-30T00:24:34.295Z,0.00
2019-01-30T00:25:34.301Z,0.00
2019-01-30T00:26:34.270Z,0.00
2019-01-30T00:27:34.260Z,0.00
2019-01-30T00:28:34.240Z,0.00
2019-01-30T00:29:34.226Z,0.00
2019-01-30T00:30:34.211Z,0.00
2019-01-30T00:31:34.208Z,0.00
2019-01-30T00:32:34.186Z,0.00
2019-01-30T00:33:34.178Z,0.00
2019-01-30T00:34:34.162Z,0.00
2019-01-30T00:35:34.153Z,0.00
2019-01-30T00:36:34.130Z,0.00
2019-01-30T00:37:34.132Z,0.00
2019-01-30T00:38:34.106Z,0.00
2019-01-30T00:39:34.095Z,0.00
2019-01-30T00:40:34.098Z,0.00
2019-01-30T00:41:34.061Z,0.00
2019-01-30T00:42:34.045Z,0.00
2019-01-30T00:43:34.043Z,0.00
2019-01-30T00:44:34.024Z,0.00
2019-01-30T00:45:34.005Z,0.00
2019-01-30T00:46:33.993Z,0.00
2019-01-30T00:47:35.025Z,0.00
2019-01-30T00:48:33.966Z,0.00
2019-01-30T00:49:33.958Z,0.00
2019-01-30T00:50:33.940Z,0.00
2019-01-30T00:51:33.925Z,0.00
2019-01-30T00:52:33.938Z,0.00
2019-01-30T00:53:33.899Z,0.00
2019-01-30T00:54:33.883Z,0.00
2019-01-30T00:55:33.868Z,0.00
2019-01-30T00:56:33.856Z,0.00
2019-01-30T00:57:33.846Z,0.00
2019-01-30T00:58:33.831Z,0.00
2019-01-30T00:59:33.819Z,0.00
2019-01-30T01:00:33.801Z,0.00
2019-01-30T01:01:33.806Z,0.00
2019-01-30T01:02:33.772Z,0.00
2019-01-30T01:03:33.757Z,0.00
2019-01-30T01:04:33.746Z,0.00
2019-01-30T01:05:33.732Z,0.00
2019-01-30T01:06:33.718Z,0.00
2019-01-30T01:07:33.745Z,0.00
2019-01-30T01:08:33.687Z,0.00
2019-01-30T01:09:33.674Z,0.00
2019-01-30T01:10:33.683Z,0.00
2019-01-30T01:11:33.668Z,0.00
2019-01-30T01:12:33.631Z,0.00
2019-01-30T01:13:33.618Z,0.00
2019-01-30T01:14:33.607Z,0.00
2019-01-30T01:15:33.589Z,0.00
2019-01-30T01:16:33.576Z,0.00
2019-01-30T01:17:33.562Z,0.00
2019-01-30T01:18:33.554Z,0.00
2019-01-30T01:19:33.534Z,0.00
2019-01-30T01:20:33.518Z,0.00
2019-01-30T01:21:33.506Z,0.00
2019-01-30T01:22:33.491Z,0.00
2019-01-30T01:23:33.482Z,0.00
2019-01-30T01:24:33.478Z,0.00
2019-01-30T01:25:33.448Z,0.00
2019-01-30T01:26:33.436Z,0.00
2019-01-30T01:27:33.446Z,0.00
2019-01-30T01:28:33.405Z,0.00
2019-01-30T01:29:33.394Z,0.00
2019-01-30T01:30:33.377Z,0.00
2019-01-30T01:31:33.362Z,0.00
2019-01-30T01:32:33.366Z,0.00
2019-01-30T01:33:33.364Z,0.00
2019-01-30T01:34:33.321Z,0.00
2019-01-30T01:35:33.308Z,0.00
2019-01-30T01:36:33.320Z,0.00
2019-01-30T01:37:33.276Z,0.00
2019-01-30T01:38:33.265Z,0.00
2019-01-30T01:39:33.250Z,0.00
2019-01-30T01:40:33.233Z,0.00
2019-01-30T01:41:33.221Z,0.00
2019-01-30T01:42:33.206Z,0.00
2019-01-30T01:43:33.199Z,0.00
2019-01-30T01:44:33.179Z,0.00
2019-01-30T01:45:33.165Z,0.00
2019-01-30T01:46:33.149Z,0.00
2019-01-30T01:47:33.160Z,0.00
2019-01-30T01:48:33.130Z,0.00
2019-01-30T01:49:33.107Z,0.00
2019-01-30T01:50:33.129Z,0.00
2019-01-30T01:51:33.082Z,0.00
2019-01-30T01:52:33.068Z,0.00
2019-01-30T01:53:33.062Z,0.00
2019-01-30T01:54:33.039Z,0.00
2019-01-30T01:55:33.025Z,0.00
2019-01-30T01:56:33.009Z,0.00
2019-01-30T01:57:32.997Z,0.00
2019-01-30T01:58:32.981Z,0.00
2019-01-30T01:59:32.973Z,0.00
2019-01-30T02:00:35.575Z,0.00
2019-01-30T02:01:32.937Z,0.00
2019-01-30T02:02:32.923Z,0.00
2019-01-30T02:03:32.914Z,0.00
2019-01-30T02:04:32.893Z,0.00
2019-01-30T02:05:32.881Z,0.00
2019-01-30T02:06:32.885Z,0.00
2019-01-30T02:07:32.851Z,0.00
2019-01-30T02:08:32.840Z,0.00
2019-01-30T02:09:32.823Z,0.00
2019-01-30T02:10:32.810Z,0.00
2019-01-30T02:11:32.794Z,0.00
2019-01-30T02:12:32.778Z,0.00
2019-01-30T02:13:32.768Z,0.00
2019-01-30T02:14:32.750Z,0.00
2019-01-30T02:15:32.736Z,0.00
2019-01-30T02:16:32.721Z,0.00
2019-01-30T02:17:32.706Z,0.00
2019-01-30T02:18:32.692Z,0.00
2019-01-30T02:19:32.679Z,0.00
2019-01-30T02:20:32.661Z,0.00
2019-01-30T02:21:32.668Z,0.00
2019-01-30T02:22:32.635Z,0.00
2019-01-30T02:23:32.649Z,0.00
2019-01-30T02:24:32.604Z,0.00
2019-01-30T02:25:32.591Z,0.00
2019-01-30T02:26:32.576Z,0.00
2019-01-30T02:27:34.104Z,0.00
2019-01-30T02:28:32.570Z,0.00
2019-01-30T02:29:32.534Z,0.00
2019-01-30T02:30:32.550Z,0.00
2019-01-30T02:31:32.503Z,0.00
2019-01-30T02:32:32.488Z,0.00
2019-01-30T02:33:32.479Z,0.00
2019-01-30T02:34:32.459Z,0.00
2019-01-30T02:35:32.451Z,0.00
2019-01-30T02:36:32.435Z,0.00
2019-01-30T02:37:32.416Z,0.00
2019-01-30T02:38:32.402Z,0.00
2019-01-30T02:39:32.388Z,0.00
2019-01-30T02:40:32.375Z,0.00
2019-01-30T02:41:32.369Z,0.00
2019-01-30T02:42:32.344Z,0.00
2019-01-30T02:43:32.357Z,0.00
2019-01-30T02:44:32.313Z,0.00
2019-01-30T02:45:32.300Z,0.00
2019-01-30T02:46:32.284Z,0.00
2019-01-30T02:47:32.273Z,0.00
2019-01-30T02:48:32.255Z,0.00
2019-01-30T02:49:32.242Z,0.00
2019-01-30T02:50:35.004Z,0.00
2019-01-30T02:51:32.213Z,0.00
2019-01-30T02:52:32.198Z,0.00
2019-01-30T02:53:32.186Z,0.00
2019-01-30T02:54:32.172Z,0.00
2019-01-30T02:55:32.160Z,0.00
2019-01-30T02:56:32.137Z,0.00
2019-01-30T02:57:32.129Z,0.00
2019-01-30T02:58:32.111Z,0.00
2019-01-30T02:59:32.097Z,0.00
2019-01-30T03:00:32.080Z,0.00
2019-01-30T03:01:32.068Z,0.00
2019-01-30T03:02:32.053Z,0.00
2019-01-30T03:03:32.038Z,0.00
2019-01-30T03:04:32.022Z,0.00
2019-01-30T03:05:32.007Z,0.00
2019-01-30T03:06:31.993Z,0.00
2019-01-30T03:07:31.978Z,0.00
2019-01-30T03:08:31.962Z,0.00
2019-01-30T03:09:31.949Z,0.00
2019-01-30T03:10:31.934Z,0.00
2019-01-30T03:11:31.921Z,0.00
2019-01-30T03:12:31.908Z,0.00
2019-01-30T03:13:31.894Z,0.00
2019-01-30T03:14:31.874Z,0.00
2019-01-30T03:15:31.865Z,0.00
2019-01-30T03:16:31.847Z,0.00
2019-01-30T03:17:31.831Z,0.00
2019-01-30T03:18:31.817Z,0.00
2019-01-30T03:19:31.803Z,0.00
2019-01-30T03:20:31.786Z,0.00
2019-01-30T03:21:31.772Z,0.00
2019-01-30T03:22:31.790Z,0.00
2019-01-30T03:23:31.745Z,0.00
2019-01-30T03:24:31.728Z,0.00
2019-01-30T03:25:31.713Z,0.00
2019-01-30T03:26:31.700Z,0.00
2019-01-30T03:27:31.683Z,0.00
2019-01-30T03:28:31.666Z,0.00
2019-01-30T03:29:31.670Z,0.00
2019-01-30T03:30:31.641Z,0.00
2019-01-30T03:31:31.630Z,0.00
2019-01-30T03:32:31.629Z,0.00
2019-01-30T03:33:31.599Z,0.00
2019-01-30T03:34:31.585Z,0.00
2019-01-30T03:35:31.565Z,0.00
2019-01-30T03:36:31.553Z,0.00
2019-01-30T03:37:31.539Z,0.00
2019-01-30T03:38:31.521Z,0.00
2019-01-30T03:39:31.506Z,0.00
2019-01-30T03:40:31.490Z,0.00
2019-01-30T03:41:31.476Z,0.00
2019-01-30T03:42:31.463Z,0.00
2019-01-30T03:43:31.451Z,0.00
2019-01-30T03:44:31.432Z,0.00
2019-01-30T03:45:31.419Z,0.00
2019-01-30T03:46:31.401Z,0.00
2019-01-30T03:47:31.410Z,0.00
2019-01-30T03:48:31.386Z,0.00
2019-01-30T03:49:31.359Z,0.00
2019-01-30T03:50:31.345Z,0.00
2019-01-30T03:51:31.327Z,0.00
2019-01-30T03:52:31.314Z,0.00
2019-01-30T03:53:31.304Z,0.00
2019-01-30T03:54:31.284Z,0.00
2019-01-30T03:55:31.270Z,0.00
2019-01-30T03:56:31.254Z,0.00
2019-01-30T03:57:31.243Z,0.00
2019-01-30T03:58:31.231Z,0.00
2019-01-30T03:59:31.215Z,0.00
2019-01-30T04:00:31.196Z,0.00
2019-01-30T04:01:31.238Z,0.00
2019-01-30T04:02:31.170Z,0.00
2019-01-30T04:03:31.155Z,0.00
2019-01-30T04:04:31.139Z,0.00
2019-01-30T04:05:31.135Z,0.00
2019-01-30T04:06:31.136Z,0.00
2019-01-30T04:07:31.102Z,0.00
2019-01-30T04:08:31.094Z,0.00
2019-01-30T04:09:31.077Z,0.00
2019-01-30T04:10:31.076Z,0.00
2019-01-30T04:11:31.042Z,0.00
2019-01-30T04:12:31.020Z,0.00
2019-01-30T04:13:31.033Z,0.00
2019-01-30T04:14:30.994Z,0.00
2019-01-30T04:15:30.977Z,0.00
2019-01-30T04:16:30.960Z,0.00
2019-01-30T04:17:30.946Z,0.00
2019-01-30T04:18:30.948Z,0.00
2019-01-30T04:19:30.921Z,0.00
2019-01-30T04:20:30.901Z,0.00
2019-01-30T04:21:30.887Z,0.00
2019-01-30T04:22:30.873Z,0.00
2019-01-30T04:23:30.856Z,0.00
2019-01-30T04:24:30.851Z,0.00
2019-01-30T04:25:30.826Z,0.00
2019-01-30T04:26:30.817Z,0.00
2019-01-30T04:27:30.802Z,0.00
2019-01-30T04:28:30.786Z,0.00
2019-01-30T04:29:30.768Z,0.00
2019-01-30T04:30:30.754Z,0.00
2019-01-30T04:31:37.970Z,0.00
2019-01-30T04:32:30.728Z,0.00
2019-01-30T04:33:30.712Z,0.00
2019-01-30T04:34:30.695Z,0.00
2019-01-30T04:35:30.684Z,0.00
2019-01-30T04:36:30.671Z,0.00
2019-01-30T04:37:30.653Z,0.00
2019-01-30T04:38:30.662Z,0.00
2019-01-30T04:39:30.623Z,0.00
2019-01-30T04:40:30.605Z,0.00
2019-01-30T04:41:30.591Z,0.00
2019-01-30T04:42:30.578Z,0.00
2019-01-30T04:43:30.561Z,0.00
2019-01-30T04:44:30.608Z,0.00
2019-01-30T04:45:30.536Z,0.00
2019-01-30T04:46:30.519Z,0.00
2019-01-30T04:47:30.508Z,0.00
2019-01-30T04:48:30.483Z,0.00
2019-01-30T04:49:30.470Z,0.00
2019-01-30T04:50:30.462Z,0.00
2019-01-30T04:51:30.439Z,0.00
2019-01-30T04:52:30.424Z,0.00
2019-01-30T04:53:30.411Z,0.00
2019-01-30T04:54:30.400Z,0.00
2019-01-30T04:55:30.383Z,0.00
2019-01-30T04:56:30.373Z,0.00
2019-01-30T04:57:30.361Z,0.00
2019-01-30T04:58:30.337Z,0.00
2019-01-30T04:59:30.326Z,0.00
2019-01-30T05:00:30.309Z,0.00
2019-01-30T05:01:30.288Z,0.00
2019-01-30T05:02:30.276Z,0.00
2019-01-30T05:03:30.259Z,0.00
2019-01-30T05:04:30.248Z,0.00
2019-01-30T05:05:30.229Z,0.00
2019-01-30T05:06:30.217Z,0.00
2019-01-30T05:07:30.200Z,0.00
2019-01-30T05:08:30.184Z,0.00
2019-01-30T05:09:30.200Z,0.00
2019-01-30T05:10:30.185Z,0.00
2019-01-30T05:11:30.139Z,0.00
2019-01-30T05:12:30.123Z,0.00
2019-01-30T05:13:30.110Z,0.00
2019-01-30T05:14:30.132Z,0.00
2019-01-30T05:15:30.086Z,0.00
2019-01-30T05:16:30.083Z,0.00
2019-01-30T05:17:30.050Z,0.00
2019-01-30T05:18:30.033Z,0.00
2019-01-30T05:19:30.018Z,0.00
2019-01-30T05:20:30.009Z,0.00
2019-01-30T05:21:29.995Z,0.00
2019-01-30T05:22:29.975Z,0.00
2019-01-30T05:23:29.983Z,0.00
2019-01-30T05:24:29.971Z,0.00
2019-01-30T05:25:29.928Z,0.00
2019-01-30T05:26:29.915Z,0.00
2019-01-30T05:27:29.899Z,0.00
2019-01-30T05:28:29.888Z,0.00
2019-01-30T05:29:29.871Z,0.00
2019-01-30T05:30:29.854Z,0.00
2019-01-30T05:31:29.836Z,0.00
2019-01-30T05:32:29.821Z,0.00
2019-01-30T05:33:29.818Z,0.00
2019-01-30T05:34:29.958Z,0.00
2019-01-30T05:35:29.837Z,0.00
2019-01-30T05:36:29.799Z,0.00
2019-01-30T05:37:29.754Z,0.00
2019-01-30T05:38:29.736Z,0.00
2019-01-30T05:39:29.716Z,0.00
2019-01-30T05:40:29.700Z,0.00
2019-01-30T05:41:29.687Z,0.00
2019-01-30T05:42:29.689Z,0.00
2019-01-30T05:43:29.654Z,0.00
2019-01-30T05:44:29.635Z,0.00
2019-01-30T05:45:29.625Z,0.00
2019-01-30T05:46:29.605Z,0.00
2019-01-30T05:47:29.614Z,0.00
2019-01-30T05:48:29.577Z,0.00
2019-01-30T05:49:29.568Z,0.00
2019-01-30T07:42:12.280Z,520.00
2019-01-30T07:43:11.403Z,536.00
2019-01-30T07:45:06.783Z,560.00
2019-01-30T07:46:04.763Z,576.00
2019-01-30T07:47:04.587Z,584.00
2019-01-30T07:48:04.359Z,596.00
2019-01-30T07:49:04.277Z,604.00
2019-01-30T07:50:11.811Z,612.00
2019-01-30T07:51:57.974Z,636.00
2019-01-30T07:52:58.902Z,648.00
2019-01-30T07:54:50.884Z,668.00
2019-01-30T07:55:50.620Z,680.00
2019-01-30T07:57:44.679Z,712.00
2019-01-30T07:58:43.667Z,732.00
2019-01-30T08:00:36.606Z,776.00
2019-01-30T08:01:37.075Z,800.00
2019-01-30T08:03:29.871Z,856.00
2019-01-30T08:04:29.297Z,888.00
2019-01-30T08:06:23.190Z,948.00
2019-01-30T08:07:22.756Z,984.00
2019-01-30T08:09:16.999Z,1048.00
2019-01-30T08:10:16.363Z,1080.00
2019-01-30T08:12:12.528Z,1132.00
2019-01-30T08:13:10.570Z,1152.00
2019-01-30T08:15:03.881Z,1196.00
2019-01-30T08:16:03.989Z,1212.00
2019-01-30T08:17:56.652Z,1252.00
2019-01-30T08:18:58.081Z,1268.00
2019-01-30T08:20:49.482Z,1308.00
2019-01-30T08:21:49.420Z,1328.00
2019-01-30T08:23:44.156Z,1364.00
2019-01-30T08:24:43.104Z,1376.00
2019-01-30T08:26:37.864Z,1384.00
2019-01-30T08:27:36.989Z,1392.00
2019-01-30T08:29:29.568Z,1404.00
2019-01-30T08:30:30.124Z,1416.00
2019-01-30T08:32:22.961Z,1424.00
2019-01-30T08:33:22.790Z,1432.00
2019-01-30T08:35:16.433Z,1436.00
2019-01-30T08:36:16.356Z,1444.00
2019-01-30T08:38:09.562Z,1448.00
2019-01-30T08:39:16.439Z,1444.00
2019-01-30T08:41:02.704Z,1440.00
2019-01-30T08:42:02.656Z,1440.00
2019-01-30T08:43:57.938Z,1436.00
2019-01-30T08:45:02.845Z,1436.00
2019-01-30T08:46:56.859Z,1432.00
2019-01-30T08:47:49.167Z,1436.00
2019-01-30T08:49:42.877Z,1452.00
2019-01-30T08:50:42.349Z,1468.00
2019-01-30T08:52:35.347Z,1484.00
2019-01-30T08:53:37.367Z,1492.00
2019-01-30T08:55:29.107Z,1500.00
2019-01-30T08:56:39.053Z,1488.00
2019-01-30T08:58:21.878Z,1468.00
2019-01-30T08:59:21.933Z,1452.00
2019-01-30T09:00:22.119Z,1436.00
2019-01-30T09:01:21.947Z,1416.00
2019-01-30T09:02:29.059Z,1404.00
2019-01-30T09:04:14.939Z,1384.00
2019-01-30T09:05:14.904Z,1280.00
2019-01-30T09:07:13.889Z,1364.00
2019-01-30T09:08:08.864Z,1360.00
2019-01-30T09:10:01.847Z,1352.00
2019-01-30T09:11:01.157Z,1352.00
2019-01-30T09:12:54.530Z,1360.00
2019-01-30T09:13:54.235Z,1372.00
2019-01-30T09:15:47.791Z,1420.00
2019-01-30T09:16:49.246Z,1448.00
2019-01-30T09:18:40.238Z,1500.00
2019-01-30T09:19:40.235Z,1528.00
2019-01-30T09:21:33.365Z,1580.00
2019-01-30T09:22:33.864Z,1612.00
2019-01-30T09:24:28.036Z,1680.00
2019-01-30T09:25:27.529Z,1716.00
2019-01-30T09:27:28.366Z,1748.00
2019-01-30T09:28:21.223Z,1760.00
2019-01-30T09:30:19.002Z,1788.00
2019-01-30T09:31:16.051Z,1812.00
2019-01-30T09:33:09.627Z,1848.00
2019-01-30T09:34:09.456Z,1876.00
2019-01-30T09:36:02.539Z,1948.00
2019-01-30T09:37:10.500Z,2004.00
2019-01-30T09:38:55.769Z,2132.00
2019-01-30T09:39:56.380Z,2224.00
2019-01-30T09:41:50.079Z,2400.00
2019-01-30T09:42:49.514Z,2504.00
2019-01-30T09:44:45.524Z,2688.00
2019-01-30T09:45:44.569Z,2800.00
2019-01-30T09:47:37.946Z,2976.00
2019-01-30T09:48:37.891Z,3076.00
2019-01-30T09:50:31.315Z,3332.00
2019-01-30T09:51:31.183Z,3564.00
2019-01-30T09:53:24.985Z,4396.00
2019-01-30T09:54:25.614Z,4840.00
2019-01-30T09:55:24.936Z,5288.00
2019-01-30T09:56:24.870Z,5636.00
2019-01-30T09:57:25.120Z,6100.00
2019-01-30T09:58:26.381Z,6632.00
2019-01-30T09:59:24.779Z,6992.00
2019-01-30T10:00:24.835Z,7188.00
2019-01-30T10:01:37.971Z,7400.00
2019-01-30T10:02:25.485Z,7616.00
2019-01-30T10:03:35.735Z,7680.00
2019-01-30T10:04:27.549Z,7792.00
2019-01-30T10:05:24.769Z,7668.00
2019-01-30T10:06:28.577Z,7740.00
2019-01-30T10:07:26.482Z,8084.00
2019-01-30T10:08:24.804Z,8692.00
2019-01-30T10:09:24.729Z,8720.00
2019-01-30T10:10:24.748Z,8428.00
2019-01-30T10:11:24.702Z,8264.00
2019-01-30T10:12:26.545Z,8768.00
2019-01-30T10:13:24.689Z,9436.00
2019-01-30T10:14:31.898Z,10264.00
2019-01-30T10:16:18.331Z,11044.00
2019-01-30T10:17:18.599Z,11240.00
2019-01-30T10:19:11.487Z,12036.00
2019-01-30T10:20:11.673Z,11704.00
2019-01-30T10:22:05.957Z,11836.00
2019-01-30T10:23:05.325Z,11448.00
2019-01-30T10:24:59.762Z,10036.00
2019-01-30T10:25:58.822Z,9044.00
2019-01-30T10:26:58.775Z,8256.00
2019-01-30T10:27:58.716Z,7548.00
2019-01-30T10:29:08.488Z,7128.00
2019-01-30T10:30:53.671Z,5896.00
2019-01-30T10:31:53.002Z,5276.00
2019-01-30T10:33:00.714Z,4932.00
2019-01-30T10:33:54.201Z,4616.00
2019-01-30T10:35:02.195Z,4316.00
2019-01-30T10:36:47.814Z,3964.00
2019-01-30T10:37:47.842Z,3868.00
2019-01-30T10:38:55.674Z,3812.00
2019-01-30T10:39:48.498Z,3852.00
2019-01-30T10:40:47.393Z,3888.00
2019-01-30T10:41:47.910Z,3920.00
2019-01-30T10:42:57.275Z,3948.00
2019-01-30T10:44:39.139Z,3940.00
2019-01-30T10:45:39.834Z,3844.00
2019-01-30T10:47:32.991Z,3664.00
2019-01-30T10:48:36.363Z,3640.00
2019-01-30T10:49:31.667Z,3644.00
2019-01-30T10:50:31.656Z,3636.00
2019-01-30T10:51:31.631Z,3648.00
2019-01-30T10:52:31.630Z,3628.00
2019-01-30T10:53:39.053Z,3532.00
2019-01-30T10:55:25.295Z,3136.00
2019-01-30T10:56:25.251Z,2984.00
2019-01-30T10:58:18.564Z,2852.00
2019-01-30T10:59:18.144Z,2836.00
2019-01-30T11:01:11.134Z,2824.00
2019-01-30T11:02:11.013Z,2840.00
2019-01-30T11:04:12.621Z,2796.00
2019-01-30T11:05:03.962Z,2704.00
2019-01-30T11:06:57.321Z,2468.00
2019-01-30T11:07:57.183Z,2364.00
2019-01-30T11:09:50.114Z,2200.00
2019-01-30T11:10:51.021Z,2100.00
2019-01-30T11:12:48.369Z,2056.00
2019-01-30T11:13:45.832Z,2056.00
2019-01-30T11:15:37.956Z,2096.00
2019-01-30T11:16:38.343Z,2396.00
2019-01-30T11:17:37.034Z,2836.00
2019-01-30T11:18:37.082Z,3292.00
2019-01-30T11:19:36.680Z,3696.00
2019-01-30T11:20:37.035Z,3876.00
2019-01-30T11:21:36.078Z,3852.00
2019-01-30T11:22:36.532Z,3784.00
2019-01-30T11:23:35.963Z,3944.00
2019-01-30T11:24:35.954Z,4152.00
2019-01-30T11:25:35.969Z,4224.00
2019-01-30T11:26:36.483Z,4148.00
2019-01-30T11:27:35.935Z,4188.00
2019-01-30T11:28:35.935Z,4272.00
2019-01-30T11:29:35.919Z,4380.00
2019-01-30T11:30:35.907Z,4392.00
2019-01-30T11:31:35.906Z,4432.00
2019-01-30T11:32:35.911Z,4340.00
2019-01-30T11:33:35.888Z,4164.00
2019-01-30T11:34:35.879Z,3972.00
2019-01-30T11:35:35.875Z,3908.00
2019-01-30T11:36:35.865Z,3992.00
2019-01-30T11:37:35.856Z,4008.00
2019-01-30T11:38:35.848Z,4088.00
2019-01-30T11:39:35.858Z,4080.00
2019-01-30T11:40:35.835Z,4100.00
2019-01-30T11:41:35.823Z,4140.00
2019-01-30T11:42:35.819Z,4108.00
2019-01-30T11:43:35.826Z,4084.00
2019-01-30T11:44:35.831Z,4052.00
2019-01-30T11:45:35.827Z,4004.00
2019-01-30T11:46:35.813Z,3952.00
2019-01-30T11:47:35.782Z,3900.00
2019-01-30T11:48:35.777Z,3828.00
2019-01-30T11:49:35.771Z,3760.00
2019-01-30T11:50:35.763Z,3696.00
2019-01-30T11:51:35.751Z,3620.00
2019-01-30T11:52:35.742Z,3564.00
2019-01-30T11:53:35.732Z,3516.00
2019-01-30T11:54:38.918Z,3488.00
2019-01-30T11:56:29.252Z,3344.00
2019-01-30T11:57:29.123Z,3276.00
2019-01-30T11:59:22.572Z,3108.00
2019-01-30T12:00:22.478Z,3024.00
2019-01-30T12:01:22.494Z,2924.00
2019-01-30T12:02:22.555Z,2844.00
2019-01-30T12:03:22.500Z,2744.00
2019-01-30T12:04:22.443Z,2620.00
2019-01-30T12:05:22.437Z,2496.00
2019-01-30T12:06:22.431Z,2388.00
2019-01-30T12:07:22.432Z,2264.00
2019-01-30T12:08:22.416Z,2124.00
2019-01-30T12:09:22.408Z,1920.00
2019-01-30T12:10:22.398Z,1760.00
2019-01-30T12:11:22.417Z,1756.00
2019-01-30T12:12:22.383Z,1812.00
2019-01-30T12:13:22.382Z,1840.00
2019-01-30T12:14:22.370Z,1836.00
2019-01-30T12:15:22.370Z,1820.00
2019-01-30T12:16:22.356Z,1748.00
2019-01-30T12:17:22.348Z,1632.00
2019-01-30T12:18:22.350Z,1532.00
2019-01-30T12:19:22.342Z,1500.00
2019-01-30T12:20:22.332Z,1568.00
2019-01-30T12:21:22.313Z,1756.00
2019-01-30T12:22:22.328Z,1956.00
2019-01-30T12:23:22.297Z,2128.00
2019-01-30T12:24:22.310Z,2360.00
2019-01-30T12:25:22.281Z,2412.00
2019-01-30T12:26:22.303Z,2404.00
2019-01-30T12:27:22.276Z,2412.00
2019-01-30T12:28:22.275Z,2332.00
2019-01-30T12:29:22.274Z,2256.00
2019-01-30T12:30:22.241Z,2240.00
2019-01-30T12:31:24.039Z,2192.00
2019-01-30T12:32:22.229Z,2140.00
2019-01-30T12:33:22.234Z,2104.00
2019-01-30T12:34:28.048Z,2040.00
2019-01-30T12:35:22.206Z,1952.00
2019-01-30T12:36:22.203Z,1832.00
2019-01-30T12:37:22.197Z,1724.00
2019-01-30T12:38:22.180Z,1644.00
2019-01-30T12:39:22.171Z,1516.00
2019-01-30T12:40:22.164Z,1384.00
2019-01-30T12:41:29.753Z,1300.00
2019-01-30T12:43:16.651Z,1216.00
2019-01-30T12:44:16.455Z,1132.00
2019-01-30T12:45:16.417Z,1040.00
2019-01-30T12:46:16.500Z,968.00
2019-01-30T12:47:20.034Z,912.00
2019-01-30T12:48:16.219Z,884.00
2019-01-30T12:49:16.178Z,868.00
2019-01-30T12:50:16.172Z,864.00
2019-01-30T12:51:16.165Z,880.00
2019-01-30T12:52:16.153Z,904.00
2019-01-30T12:53:16.147Z,920.00
2019-01-30T12:54:16.235Z,928.00
2019-01-30T12:55:16.129Z,928.00
2019-01-30T12:56:16.120Z,924.00
2019-01-30T12:57:16.109Z,928.00
2019-01-30T12:58:16.105Z,940.00
2019-01-30T12:59:16.098Z,964.00
2019-01-30T13:00:16.103Z,992.00
2019-01-30T13:01:16.078Z,1024.00
2019-01-30T13:02:16.095Z,1056.00
2019-01-30T13:03:16.066Z,1064.00
2019-01-30T13:04:16.055Z,1044.00
2019-01-30T13:05:16.078Z,1036.00
2019-01-30T13:06:16.035Z,1020.00
2019-01-30T13:07:23.366Z,1028.00
2019-01-30T13:09:09.595Z,1156.00
2019-01-30T13:10:09.613Z,1236.00
2019-01-30T13:12:02.404Z,1372.00
2019-01-30T13:13:02.316Z,1456.00
2019-01-30T13:14:55.450Z,1576.00
2019-01-30T13:15:55.323Z,1568.00
2019-01-30T13:17:48.258Z,1624.00
2019-01-30T13:18:48.155Z,1528.00
2019-01-30T13:20:41.051Z,1468.00
2019-01-30T13:21:40.974Z,1424.00
2019-01-30T13:23:34.022Z,1264.00
2019-01-30T13:24:33.758Z,1172.00
2019-01-30T13:26:26.888Z,1096.00
2019-01-30T13:27:26.578Z,1092.00
2019-01-30T13:29:19.492Z,1108.00
2019-01-30T13:30:19.435Z,1124.00
2019-01-30T13:32:12.300Z,1112.00
2019-01-30T13:33:12.299Z,1084.00
2019-01-30T13:35:05.693Z,1064.00
2019-01-30T13:36:05.632Z,1076.00
2019-01-30T13:37:58.823Z,1168.00
2019-01-30T13:38:58.490Z,1248.00
2019-01-30T13:40:52.046Z,1408.00
2019-01-30T13:41:52.780Z,1460.00
2019-01-30T13:43:44.800Z,1512.00
2019-01-30T13:44:44.777Z,1604.00
2019-01-30T13:46:38.264Z,1756.00
2019-01-30T13:47:38.212Z,1856.00
2019-01-30T13:49:31.174Z,2108.00
2019-01-30T13:50:31.030Z,2292.00
2019-01-30T13:52:26.167Z,2636.00
2019-01-30T13:53:24.671Z,2792.00
2019-01-30T13:54:24.733Z,2840.00
2019-01-30T13:55:24.382Z,2928.00
2019-01-30T13:56:24.379Z,3172.00
2019-01-30T13:57:24.348Z,2872.00
2019-01-30T13:58:31.717Z,2828.00
2019-01-30T14:00:17.943Z,2696.00
2019-01-30T14:01:18.007Z,2620.00
2019-01-30T14:03:11.405Z,2652.00
2019-01-30T14:04:11.616Z,2712.00
2019-01-30T14:06:04.508Z,2752.00
2019-01-30T14:07:04.185Z,2508.00
2019-01-30T14:08:58.576Z,2488.00
2019-01-30T14:09:57.992Z,2476.00
2019-01-30T14:11:51.353Z,2376.00
2019-01-30T14:12:50.873Z,2252.00
2019-01-30T14:14:44.478Z,2156.00
2019-01-30T14:15:44.214Z,2160.00
2019-01-30T14:17:37.123Z,2140.00
2019-01-30T14:18:37.145Z,2056.00
2019-01-30T14:20:30.569Z,1856.00
2019-01-30T14:21:30.418Z,1784.00
2019-01-30T14:23:23.921Z,1692.00
2019-01-30T14:24:23.875Z,1652.00
2019-01-30T14:26:16.862Z,1588.00
2019-01-30T14:27:16.736Z,1560.00
2019-01-30T14:29:10.260Z,1400.00
2019-01-30T14:30:10.060Z,1360.00
2019-01-30T14:32:03.936Z,1232.00
2019-01-30T14:33:03.864Z,1184.00
2019-01-30T14:34:03.747Z,1116.00
2019-01-30T14:35:10.594Z,1056.00
2019-01-30T14:36:05.298Z,1020.00
2019-01-30T14:37:03.524Z,964.00
2019-01-30T14:38:05.274Z,916.00
2019-01-30T14:39:03.530Z,880.00
2019-01-30T14:40:03.544Z,852.00
2019-01-30T14:41:03.549Z,824.00
2019-01-30T14:42:03.552Z,796.00
2019-01-30T14:43:03.524Z,748.00
2019-01-30T14:44:03.587Z,700.00
2019-01-30T14:45:03.502Z,664.00
2019-01-30T14:46:03.482Z,632.00
2019-01-30T14:47:03.439Z,624.00
2019-01-30T14:48:03.438Z,620.00
2019-01-30T14:49:03.462Z,620.00
2019-01-30T14:50:03.565Z,620.00
2019-01-30T14:51:03.404Z,620.00
2019-01-30T14:52:03.396Z,628.00
2019-01-30T14:53:03.397Z,636.00
2019-01-30T14:54:03.412Z,644.00
2019-01-30T14:55:03.375Z,656.00
2019-01-30T14:56:03.402Z,664.00
2019-01-30T14:57:03.406Z,664.00
2019-01-30T14:58:03.387Z,664.00
2019-01-30T14:59:03.351Z,668.00
2019-01-30T15:00:03.386Z,668.00
2019-01-30T15:01:03.335Z,656.00
2019-01-30T15:02:03.316Z,632.00
2019-01-30T15:03:03.335Z,616.00
2019-01-30T15:04:03.296Z,604.00
2019-01-30T15:05:03.294Z,588.00
2019-01-30T15:06:03.293Z,572.00
2019-01-30T15:07:03.280Z,568.00
2019-01-30T15:08:03.270Z,552.00
2019-01-30T15:09:03.257Z,536.00
2019-01-30T15:10:03.277Z,520.00
2019-01-30T15:11:03.313Z,508.00
2019-01-30T15:12:03.306Z,500.00
2019-01-30T15:13:03.223Z,488.00
2019-01-30T15:14:03.248Z,472.00
2019-01-30T15:15:03.232Z,452.00
2019-01-30T15:16:03.204Z,424.00
2019-01-30T15:17:03.187Z,396.00
2019-01-30T15:18:03.250Z,380.00
2019-01-30T15:19:03.195Z,368.00
2019-01-30T15:20:03.191Z,364.00
2019-01-30T15:21:03.200Z,352.00
2019-01-30T15:22:03.185Z,336.00
2019-01-30T15:23:04.782Z,324.00
2019-01-30T15:24:03.127Z,316.00
2019-01-30T15:25:03.186Z,312.00
2019-01-30T15:26:03.142Z,308.00
2019-01-30T15:27:03.100Z,304.00
2019-01-30T15:28:03.093Z,304.00
2019-01-30T15:29:03.088Z,296.00
2019-01-30T15:30:03.793Z,280.00
2019-01-30T15:31:03.065Z,264.00
2019-01-30T15:32:03.070Z,248.00
2019-01-30T15:33:03.056Z,236.00
2019-01-30T15:34:03.042Z,228.00
2019-01-30T15:35:03.031Z,220.00
2019-01-30T15:36:03.027Z,212.00
2019-01-30T15:37:03.018Z,196.00
2019-01-30T15:38:03.027Z,172.00
2019-01-30T15:39:03.001Z,152.00
2019-01-30T15:40:02.993Z,132.00
2019-01-30T15:41:02.981Z,124.00
2019-01-30T15:42:02.972Z,112.00
2019-01-30T15:43:02.966Z,108.00
2019-01-30T15:44:02.971Z,100.00
2019-01-30T15:45:02.948Z,100.00
2019-01-30T15:46:02.946Z,96.00
2019-01-30T15:47:02.936Z,92.00
2019-01-30T15:48:02.920Z,88.00
2019-01-30T15:49:02.913Z,80.00
2019-01-30T15:50:02.901Z,68.00
2019-01-30T15:51:02.895Z,64.00
2019-01-30T15:52:02.885Z,56.00
2019-01-30T15:53:02.878Z,52.00